createdAt,value
2017-06-29T00:00:24.433Z,13.78
2017-06-29T00:01:24.092Z,13.73
2017-06-29T00:02:24.711Z,13.86
2017-06-29T00:03:24.680Z,13.78
2017-06-29T00:04:24.379Z,13.79
2017-06-29T00:05:24.376Z,13.84
2017-06-29T00:06:24.061Z,13.81
2017-06-29T00:07:24.067Z,13.84
2017-06-29T00:08:24.454Z,13.88
2017-06-29T00:09:25.140Z,13.83
2017-06-29T00:10:25.034Z,13.88
2017-06-29T00:11:25.288Z,13.86
2017-06-29T00:12:24.077Z,13.88
2017-06-29T00:13:24.411Z,13.95
2017-06-29T00:14:24.015Z,13.91
2017-06-29T00:15:24.005Z,13.94
2017-06-29T00:16:24.345Z,13.93
2017-06-29T00:17:24.632Z,13.93
2017-06-29T00:18:24.918Z,13.94
2017-06-29T00:19:24.455Z,13.97
2017-06-29T00:20:23.980Z,14.02
2017-06-29T00:21:24.299Z,13.97
2017-06-29T00:22:24.289Z,13.97
2017-06-29T00:23:23.963Z,14.01
2017-06-29T00:24:24.306Z,14.08
2017-06-29T00:25:24.293Z,14.12
2017-06-29T00:26:24.311Z,14.11
2017-06-29T00:27:24.308Z,14.06
2017-06-29T00:28:24.260Z,14.15
2017-06-29T00:29:24.297Z,14.12
2017-06-29T00:30:23.926Z,14.15
2017-06-29T00:31:24.255Z,14.11
2017-06-29T00:32:23.959Z,14.15
2017-06-29T00:33:24.259Z,14.21
2017-06-29T00:34:24.247Z,14.13
2017-06-29T00:35:24.267Z,14.11
2017-06-29T00:36:24.243Z,14.09
2017-06-29T00:37:23.893Z,14.16
2017-06-29T00:38:24.228Z,14.2
2017-06-29T00:39:23.884Z,14.13
2017-06-29T00:40:24.203Z,14.16
2017-06-29T00:41:23.899Z,14.27
2017-06-29T00:42:24.199Z,14.27
2017-06-29T00:43:23.871Z,14.27
2017-06-29T00:44:24.185Z,14.26
2017-06-29T00:45:24.195Z,14.3
2017-06-29T00:46:23.858Z,14.28
2017-06-29T00:47:24.170Z,14.31
2017-06-29T00:48:23.867Z,14.34
2017-06-29T00:49:24.178Z,14.33
2017-06-29T00:50:24.167Z,14.42
2017-06-29T00:51:24.170Z,14.31
2017-06-29T00:52:23.841Z,14.31
2017-06-29T00:53:24.139Z,14.33
2017-06-29T00:54:24.144Z,14.28
2017-06-29T00:55:24.133Z,14.28
2017-06-29T00:56:23.823Z,14.39
2017-06-29T00:57:24.165Z,14.31
2017-06-29T00:58:24.129Z,14.36
2017-06-29T00:59:23.789Z,14.33
2017-06-29T01:00:24.105Z,14.34
2017-06-29T01:01:23.802Z,14.36
2017-06-29T01:02:23.787Z,14.31
2017-06-29T01:03:23.794Z,14.31
2017-06-29T01:04:24.113Z,14.31
2017-06-29T01:05:24.131Z,14.48
2017-06-29T01:06:24.078Z,14.42
2017-06-29T01:07:23.751Z,14.42
2017-06-29T01:08:24.089Z,14.45
2017-06-29T01:09:24.069Z,14.34
2017-06-29T01:10:24.094Z,14.48
2017-06-29T01:11:24.058Z,14.51
2017-06-29T01:12:24.074Z,14.45
2017-06-29T01:13:23.406Z,14.45
2017-06-29T01:14:24.044Z,14.46
2017-06-29T01:15:23.714Z,14.48
2017-06-29T01:16:24.046Z,14.53
2017-06-29T01:17:24.028Z,14.6
2017-06-29T01:18:23.726Z,14.52
2017-06-29T01:19:23.698Z,14.46
2017-06-29T01:20:24.033Z,14.51
2017-06-29T01:21:23.395Z,14.64
2017-06-29T01:22:24.022Z,14.64
2017-06-29T01:23:23.713Z,14.59
2017-06-29T01:24:23.357Z,14.63
2017-06-29T01:25:24.019Z,14.61
2017-06-29T01:26:23.998Z,14.67
2017-06-29T01:27:24.006Z,14.61
2017-06-29T01:28:24.017Z,14.6
2017-06-29T01:29:23.653Z,14.66
2017-06-29T01:30:23.671Z,14.7
2017-06-29T01:31:23.690Z,14.61
2017-06-29T01:32:23.652Z,14.79
2017-06-29T01:33:23.658Z,14.66
2017-06-29T01:34:23.954Z,14.69
2017-06-29T01:35:23.638Z,14.74
2017-06-29T01:36:23.953Z,14.74
2017-06-29T01:37:23.629Z,14.71
2017-06-29T01:38:23.618Z,14.71
2017-06-29T01:39:23.972Z,14.82
2017-06-29T01:40:23.602Z,14.71
2017-06-29T01:41:23.930Z,14.85
2017-06-29T01:42:23.955Z,14.83
2017-06-29T01:43:23.277Z,14.79
2017-06-29T01:44:23.926Z,14.82
2017-06-29T01:45:23.583Z,14.82
2017-06-29T01:46:23.595Z,14.83
2017-06-29T01:47:23.575Z,14.82
2017-06-29T01:48:23.889Z,14.85
2017-06-29T01:49:23.617Z,14.83
2017-06-29T01:50:23.557Z,14.8
2017-06-29T01:51:23.889Z,14.89
2017-06-29T01:52:23.891Z,14.9
2017-06-29T01:53:23.891Z,14.83
2017-06-29T01:54:23.575Z,14.82
2017-06-29T01:55:23.561Z,14.87
2017-06-29T01:56:23.856Z,14.9
2017-06-29T01:57:23.553Z,14.95
2017-06-29T01:58:23.851Z,14.89
2017-06-29T01:59:23.842Z,14.94
2017-06-29T02:00:23.846Z,14.89
2017-06-29T02:01:23.839Z,14.97
2017-06-29T02:02:23.507Z,15.01
2017-06-29T02:03:23.827Z,14.95
2017-06-29T02:04:23.820Z,14.98
2017-06-29T02:05:23.517Z,15.01
2017-06-29T02:06:23.822Z,15.02
2017-06-29T02:07:23.818Z,15.04
2017-06-29T02:08:23.488Z,15.07
2017-06-29T02:09:23.801Z,15.1
2017-06-29T02:10:23.475Z,15.08
2017-06-29T02:11:23.151Z,15.16
2017-06-29T02:12:23.795Z,15.08
2017-06-29T02:13:23.836Z,15.15
2017-06-29T02:14:23.783Z,15.18
2017-06-29T02:15:23.475Z,15.18
2017-06-29T02:16:23.796Z,15.13
2017-06-29T02:17:23.445Z,15.07
2017-06-29T02:18:23.778Z,15.08
2017-06-29T02:19:23.754Z,15.1
2017-06-29T02:20:23.754Z,15.19
2017-06-29T02:21:23.759Z,15.1
2017-06-29T02:22:23.752Z,15.12
2017-06-29T02:23:23.425Z,15.08
2017-06-29T02:24:23.420Z,15.08
2017-06-29T02:25:23.428Z,15.08
2017-06-29T02:26:23.408Z,15.08
2017-06-29T02:27:23.744Z,15.05
2017-06-29T02:28:23.725Z,15.15
2017-06-29T02:29:23.417Z,15.12
2017-06-29T02:30:23.713Z,15.13
2017-06-29T02:31:23.388Z,15.12
2017-06-29T02:32:23.708Z,15.1
2017-06-29T02:33:23.698Z,15.1
2017-06-29T02:34:23.693Z,15.13
2017-06-29T02:35:23.713Z,15.12
2017-06-29T02:36:23.692Z,15.15
2017-06-29T02:37:23.362Z,15.12
2017-06-29T02:38:23.399Z,15.07
2017-06-29T02:39:23.692Z,15.07
2017-06-29T02:40:23.349Z,15.07
2017-06-29T02:41:23.676Z,15.07
2017-06-29T02:42:23.069Z,15.1
2017-06-29T02:43:23.020Z,15.23
2017-06-29T02:44:23.344Z,15.25
2017-06-29T02:45:23.349Z,15.23
2017-06-29T02:46:23.657Z,15.18
2017-06-29T02:47:23.659Z,15.19
2017-06-29T02:48:23.319Z,15.13
2017-06-29T02:49:23.656Z,15.19
2017-06-29T02:50:22.986Z,15.23
2017-06-29T02:51:23.647Z,15.2
2017-06-29T02:52:23.303Z,15.08
2017-06-29T02:53:23.296Z,15.26
2017-06-29T02:54:23.648Z,15.15
2017-06-29T02:55:23.308Z,15.12
2017-06-29T02:56:23.612Z,15.23
2017-06-29T02:57:23.294Z,15.19
2017-06-29T02:58:23.622Z,15.2
2017-06-29T02:59:23.306Z,15.22
2017-06-29T03:00:23.599Z,15.22
2017-06-29T03:01:23.604Z,15.25
2017-06-29T03:02:23.600Z,15.23
2017-06-29T03:03:23.590Z,15.26
2017-06-29T03:04:23.261Z,15.22
2017-06-29T03:05:23.247Z,15.25
2017-06-29T03:06:22.926Z,15.27
2017-06-29T03:07:23.560Z,15.2
2017-06-29T03:08:23.556Z,15.26
2017-06-29T03:09:23.232Z,15.26
2017-06-29T03:10:23.546Z,15.26
2017-06-29T03:11:23.238Z,15.25
2017-06-29T03:12:23.278Z,15.19
2017-06-29T03:13:23.246Z,15.23
2017-06-29T03:14:23.570Z,15.18
2017-06-29T03:15:23.529Z,15.2
2017-06-29T03:16:23.521Z,15.23
2017-06-29T03:17:23.540Z,15.22
2017-06-29T03:18:23.523Z,15.22
2017-06-29T03:19:23.509Z,15.25
2017-06-29T03:20:23.195Z,15.23
2017-06-29T03:21:23.502Z,15.26
2017-06-29T03:22:22.861Z,15.25
2017-06-29T03:23:23.511Z,15.31
2017-06-29T03:24:23.495Z,15.33
2017-06-29T03:25:23.491Z,15.37
2017-06-29T03:26:23.162Z,15.25
2017-06-29T03:27:23.157Z,15.31
2017-06-29T03:28:23.176Z,15.31
2017-06-29T03:29:23.477Z,15.37
2017-06-29T03:30:23.156Z,15.31
2017-06-29T03:31:23.464Z,15.37
2017-06-29T03:32:23.482Z,15.34
2017-06-29T03:33:23.471Z,15.34
2017-06-29T03:34:23.464Z,15.34
2017-06-29T03:35:23.141Z,15.34
2017-06-29T03:36:23.443Z,15.35
2017-06-29T03:37:23.437Z,15.35
2017-06-29T03:38:23.442Z,15.43
2017-06-29T03:39:23.109Z,15.49
2017-06-29T03:40:23.128Z,15.35
2017-06-29T03:41:23.460Z,15.43
2017-06-29T03:42:23.438Z,15.41
2017-06-29T03:43:23.095Z,15.47
2017-06-29T03:44:23.430Z,15.43
2017-06-29T03:45:23.419Z,15.43
2017-06-29T03:46:23.082Z,15.41
2017-06-29T03:47:23.076Z,15.44
2017-06-29T03:48:22.754Z,15.45
2017-06-29T03:49:23.391Z,15.44
2017-06-29T03:50:22.766Z,15.55
2017-06-29T03:51:23.405Z,15.52
2017-06-29T03:52:23.398Z,15.52
2017-06-29T03:53:23.391Z,15.52
2017-06-29T03:54:23.370Z,15.47
2017-06-29T03:55:23.392Z,15.47
2017-06-29T03:56:23.371Z,15.58
2017-06-29T03:57:23.037Z,15.47
2017-06-29T03:58:23.360Z,15.47
2017-06-29T03:59:23.357Z,15.47
2017-06-29T04:00:23.027Z,15.47
2017-06-29T04:01:23.351Z,15.52
2017-06-29T04:02:23.035Z,15.49
2017-06-29T04:03:23.341Z,15.58
2017-06-29T04:04:23.344Z,15.53
2017-06-29T04:05:23.011Z,15.49
2017-06-29T04:06:23.007Z,15.58
2017-06-29T04:07:23.002Z,15.53
2017-06-29T04:08:23.330Z,15.47
2017-06-29T04:09:22.675Z,15.55
2017-06-29T04:10:22.986Z,15.55
2017-06-29T04:11:23.307Z,15.56
2017-06-29T04:12:23.314Z,15.51
2017-06-29T04:13:23.302Z,15.47
2017-06-29T04:14:23.006Z,15.47
2017-06-29T04:15:22.967Z,15.45
2017-06-29T04:16:23.285Z,15.51
2017-06-29T04:17:23.282Z,15.51
2017-06-29T04:18:22.959Z,15.44
2017-06-29T04:19:23.281Z,15.53
2017-06-29T04:20:22.950Z,15.45
2017-06-29T04:21:22.966Z,15.51
2017-06-29T04:22:22.943Z,15.52
2017-06-29T04:23:23.289Z,15.53
2017-06-29T04:24:23.252Z,15.52
2017-06-29T04:25:22.945Z,15.53
2017-06-29T04:26:23.246Z,15.6
2017-06-29T04:27:23.243Z,15.59
2017-06-29T04:28:22.920Z,15.53
2017-06-29T04:29:23.238Z,15.53
2017-06-29T04:30:23.234Z,15.53
2017-06-29T04:31:23.234Z,15.55
2017-06-29T04:32:22.910Z,15.53
2017-06-29T04:33:23.245Z,15.56
2017-06-29T04:34:23.219Z,15.56
2017-06-29T04:35:23.214Z,15.45
2017-06-29T04:36:22.890Z,15.53
2017-06-29T04:37:23.208Z,15.52
2017-06-29T04:38:23.212Z,15.52
2017-06-29T04:39:22.880Z,15.56
2017-06-29T04:40:23.198Z,15.58
2017-06-29T04:41:22.565Z,15.53
2017-06-29T04:42:22.865Z,15.52
2017-06-29T04:43:22.862Z,15.55
2017-06-29T04:44:22.540Z,15.58
2017-06-29T04:45:23.229Z,15.53
2017-06-29T04:46:23.168Z,15.43
2017-06-29T04:47:22.847Z,15.52
2017-06-29T04:48:23.164Z,15.55
2017-06-29T04:49:23.160Z,15.53
2017-06-29T04:50:23.154Z,15.53
2017-06-29T04:51:23.149Z,15.58
2017-06-29T04:52:22.834Z,15.52
2017-06-29T04:53:23.144Z,15.55
2017-06-29T04:54:23.142Z,15.63
2017-06-29T04:55:22.814Z,15.6
2017-06-29T04:56:23.133Z,15.58
2017-06-29T04:57:23.132Z,15.55
2017-06-29T04:58:23.126Z,15.55
2017-06-29T04:59:23.129Z,15.55
2017-06-29T05:00:22.801Z,15.58
2017-06-29T05:01:22.800Z,15.55
2017-06-29T05:02:23.144Z,15.52
2017-06-29T05:03:22.798Z,15.51
2017-06-29T05:04:22.786Z,15.58
2017-06-29T05:05:22.785Z,15.51
2017-06-29T05:06:22.775Z,15.47
2017-06-29T05:07:22.767Z,15.51
2017-06-29T05:08:22.764Z,15.53
2017-06-29T05:09:23.088Z,15.47
2017-06-29T05:10:23.077Z,15.45
2017-06-29T05:11:22.753Z,15.47
2017-06-29T05:12:23.090Z,15.6
2017-06-29T05:13:23.071Z,15.59
2017-06-29T05:14:22.746Z,15.62
2017-06-29T05:15:22.739Z,15.55
2017-06-29T05:16:22.420Z,15.53
2017-06-29T05:17:22.734Z,15.63
2017-06-29T05:18:22.727Z,15.55
2017-06-29T05:19:23.093Z,15.63
2017-06-29T05:20:22.719Z,15.52
2017-06-29T05:21:23.057Z,15.55
2017-06-29T05:22:23.032Z,15.62
2017-06-29T05:23:23.030Z,15.63
2017-06-29T05:24:23.029Z,15.55
2017-06-29T05:25:23.023Z,15.62
2017-06-29T05:26:22.697Z,15.63
2017-06-29T05:27:22.692Z,15.65
2017-06-29T05:28:22.698Z,15.59
2017-06-29T05:29:22.369Z,15.56
2017-06-29T05:30:23.002Z,15.67
2017-06-29T05:31:22.682Z,15.65
2017-06-29T05:32:23.007Z,15.7
2017-06-29T05:33:23.065Z,15.7
2017-06-29T05:34:22.988Z,15.68
2017-06-29T05:35:22.675Z,15.58
2017-06-29T05:36:22.979Z,15.63
2017-06-29T05:37:22.978Z,15.71
2017-06-29T05:38:22.663Z,15.68
2017-06-29T05:39:22.665Z,15.7
2017-06-29T05:40:22.968Z,15.73
2017-06-29T05:41:22.970Z,15.65
2017-06-29T05:42:22.640Z,15.58
2017-06-29T05:43:22.955Z,15.65
2017-06-29T05:44:22.653Z,15.65
2017-06-29T05:45:22.636Z,15.6
2017-06-29T05:46:22.635Z,15.67
2017-06-29T05:47:22.626Z,15.68
2017-06-29T05:48:22.937Z,15.67
2017-06-29T05:49:22.942Z,15.75
2017-06-29T05:50:22.501Z,15.73
2017-06-29T05:51:22.604Z,15.71
2017-06-29T05:52:22.599Z,15.74
2017-06-29T05:53:22.919Z,15.73
2017-06-29T05:54:22.599Z,15.74
2017-06-29T05:55:22.586Z,15.68
2017-06-29T05:56:22.906Z,15.71
2017-06-29T05:57:22.581Z,15.77
2017-06-29T05:58:22.257Z,15.77
2017-06-29T05:59:22.577Z,15.74
2017-06-29T06:00:22.928Z,15.73
2017-06-29T06:01:22.889Z,15.88
2017-06-29T06:02:22.565Z,15.88
2017-06-29T06:03:22.879Z,15.86
2017-06-29T06:04:22.889Z,15.93
2017-06-29T06:05:22.552Z,15.89
2017-06-29T06:06:22.880Z,15.93
2017-06-29T06:07:22.566Z,15.91
2017-06-29T06:08:22.863Z,15.99
2017-06-29T06:09:22.539Z,15.98
2017-06-29T06:10:22.533Z,15.96
2017-06-29T06:11:22.854Z,16.07
2017-06-29T06:12:22.851Z,16.07
2017-06-29T06:13:22.842Z,16.02
2017-06-29T06:14:22.839Z,16.1
2017-06-29T06:15:22.513Z,16.13
2017-06-29T06:16:22.519Z,16.13
2017-06-29T06:17:22.506Z,16.17
2017-06-29T06:18:22.529Z,16.17
2017-06-29T06:19:22.867Z,16.14
2017-06-29T06:20:22.499Z,16.1
2017-06-29T06:21:22.818Z,16.18
2017-06-29T06:22:22.809Z,16.18
2017-06-29T06:23:22.820Z,16.25
2017-06-29T06:24:22.804Z,16.17
2017-06-29T06:25:22.511Z,16.17
2017-06-29T06:26:22.486Z,16.18
2017-06-29T06:27:22.797Z,16.25
2017-06-29T06:28:22.791Z,16.16
2017-06-29T06:29:22.152Z,16.21
2017-06-29T06:30:22.789Z,16.21
2017-06-29T06:31:22.804Z,16.18
2017-06-29T06:32:22.458Z,16.13
2017-06-29T06:33:22.457Z,16.08
2017-06-29T06:34:22.466Z,16.14
2017-06-29T06:35:22.770Z,16.14
2017-06-29T06:36:22.445Z,16.13
2017-06-29T06:37:22.762Z,16.16
2017-06-29T06:38:22.438Z,16.08
2017-06-29T06:39:22.435Z,16.1
2017-06-29T06:40:22.766Z,16.07
2017-06-29T06:41:22.751Z,16
2017-06-29T06:42:22.426Z,16
2017-06-29T06:43:22.098Z,16.04
2017-06-29T06:44:22.742Z,15.93
2017-06-29T06:45:22.749Z,15.98
2017-06-29T06:46:22.408Z,15.92
2017-06-29T06:47:22.751Z,15.92
2017-06-29T06:48:22.082Z,15.91
2017-06-29T06:49:22.734Z,15.81
2017-06-29T06:50:22.408Z,15.84
2017-06-29T06:51:22.730Z,15.84
2017-06-29T06:52:22.068Z,15.86
2017-06-29T06:53:22.704Z,15.88
2017-06-29T06:54:22.379Z,15.89
2017-06-29T06:55:22.377Z,15.95
2017-06-29T06:56:22.694Z,15.92
2017-06-29T06:57:22.692Z,15.84
2017-06-29T06:58:22.385Z,15.89
2017-06-29T06:59:22.367Z,15.81
2017-06-29T07:00:22.040Z,15.89
2017-06-29T07:01:22.704Z,15.93
2017-06-29T07:02:22.353Z,15.88
2017-06-29T07:03:22.376Z,15.88
2017-06-29T07:04:22.679Z,15.88
2017-06-29T07:05:22.359Z,15.92
2017-06-29T07:06:22.019Z,15.98
2017-06-29T07:07:22.332Z,15.93
2017-06-29T07:08:22.329Z,15.99
2017-06-29T07:09:22.327Z,16
2017-06-29T07:10:22.325Z,16.06
2017-06-29T07:11:22.321Z,16.04
2017-06-29T07:12:22.638Z,16.06
2017-06-29T07:13:22.311Z,16.07
2017-06-29T07:14:22.644Z,16.14
2017-06-29T07:15:22.335Z,16.06
2017-06-29T07:16:22.343Z,16.08
2017-06-29T07:17:22.300Z,16.13
2017-06-29T07:18:22.300Z,16.08
2017-06-29T07:19:22.616Z,16.17
2017-06-29T07:20:22.608Z,16.13
2017-06-29T07:21:22.609Z,16.16
2017-06-29T07:22:22.304Z,16.14
2017-06-29T07:23:22.279Z,16.26
2017-06-29T07:24:21.954Z,16.16
2017-06-29T07:25:22.591Z,16.22
2017-06-29T07:26:22.588Z,16.22
2017-06-29T07:27:22.585Z,16.26
2017-06-29T07:28:22.583Z,16.25
2017-06-29T07:29:22.600Z,16.22
2017-06-29T07:30:21.952Z,16.26
2017-06-29T07:31:22.249Z,16.29
2017-06-29T07:32:22.571Z,16.26
2017-06-29T07:33:22.571Z,16.33
2017-06-29T07:34:22.573Z,16.33
2017-06-29T07:35:22.557Z,16.32
2017-06-29T07:36:22.231Z,16.33
2017-06-29T07:37:22.546Z,16.26
2017-06-29T07:38:22.232Z,16.21
2017-06-29T07:39:22.223Z,16.27
2017-06-29T07:40:22.231Z,16.3
2017-06-29T07:41:22.216Z,16.36
2017-06-29T07:42:22.532Z,16.4
2017-06-29T07:43:22.206Z,16.39
2017-06-29T07:44:22.223Z,16.44
2017-06-29T07:45:22.525Z,16.45
2017-06-29T07:46:22.525Z,16.51
2017-06-29T07:47:22.210Z,16.52
2017-06-29T07:48:22.197Z,16.49
2017-06-29T07:49:22.517Z,16.57
2017-06-29T07:50:22.518Z,16.52
2017-06-29T07:51:22.507Z,16.52
2017-06-29T07:52:22.184Z,16.62
2017-06-29T07:53:22.526Z,16.59
2017-06-29T07:54:22.514Z,16.52
2017-06-29T07:55:22.187Z,16.49
2017-06-29T07:56:22.166Z,16.48
2017-06-29T07:57:22.485Z,16.54
2017-06-29T07:58:22.513Z,16.47
2017-06-29T07:59:22.480Z,16.39
2017-06-29T08:00:22.154Z,16.3
2017-06-29T08:01:22.473Z,16.3
2017-06-29T08:02:22.468Z,16.27
2017-06-29T08:03:21.847Z,16.3
2017-06-29T08:04:22.148Z,16.32
2017-06-29T08:05:22.141Z,16.26
2017-06-29T08:06:22.460Z,16.34
2017-06-29T08:07:22.146Z,16.29
2017-06-29T08:08:22.130Z,16.32
2017-06-29T08:09:22.152Z,16.33
2017-06-29T08:10:22.119Z,16.36
2017-06-29T08:11:22.124Z,16.44
2017-06-29T08:12:22.121Z,16.48
2017-06-29T08:13:22.472Z,16.45
2017-06-29T08:14:22.430Z,16.42
2017-06-29T08:15:21.784Z,16.44
2017-06-29T08:16:22.114Z,16.44
2017-06-29T08:17:21.776Z,16.3
2017-06-29T08:18:22.097Z,16.33
2017-06-29T08:19:21.775Z,16.26
2017-06-29T08:20:22.451Z,16.34
2017-06-29T08:21:22.089Z,16.33
2017-06-29T08:22:22.403Z,16.22
2017-06-29T08:23:22.084Z,16.3
2017-06-29T08:24:22.416Z,16.25
2017-06-29T08:25:22.092Z,16.26
2017-06-29T08:26:21.761Z,16.34
2017-06-29T08:27:22.083Z,16.25
2017-06-29T08:28:22.434Z,16.29
2017-06-29T08:29:22.063Z,16.27
2017-06-29T08:30:22.382Z,16.29
2017-06-29T08:31:22.386Z,16.29
2017-06-29T08:32:22.068Z,16.16
2017-06-29T08:33:22.366Z,16.33
2017-06-29T08:34:22.364Z,16.26
2017-06-29T08:35:22.040Z,16.25
2017-06-29T08:36:22.378Z,16.29
2017-06-29T08:37:22.362Z,16.27
2017-06-29T08:38:22.354Z,16.3
2017-06-29T08:39:21.703Z,16.3
2017-06-29T08:40:22.342Z,16.27
2017-06-29T08:41:21.702Z,16.3
2017-06-29T08:42:22.021Z,16.3
2017-06-29T08:43:22.015Z,16.29
2017-06-29T08:44:22.349Z,16.36
2017-06-29T08:45:22.329Z,16.26
2017-06-29T08:46:22.002Z,16.27
2017-06-29T08:47:22.320Z,16.27
2017-06-29T08:48:21.674Z,16.25
2017-06-29T08:49:22.315Z,16.29
2017-06-29T08:50:22.308Z,16.32
2017-06-29T08:51:21.986Z,16.34
2017-06-29T08:52:22.300Z,16.33
2017-06-29T08:53:21.979Z,16.27
2017-06-29T08:54:21.975Z,16.26
2017-06-29T08:55:22.309Z,16.32
2017-06-29T08:56:21.987Z,16.27
2017-06-29T08:57:21.968Z,16.33
2017-06-29T08:58:22.287Z,16.21
2017-06-29T08:59:21.656Z,16.22
2017-06-29T09:00:21.957Z,16.32
2017-06-29T09:01:21.951Z,16.29
2017-06-29T09:02:22.286Z,16.29
2017-06-29T09:03:21.630Z,16.18
2017-06-29T09:04:22.281Z,16.32
2017-06-29T09:05:22.260Z,16.29
2017-06-29T09:06:21.621Z,16.27
2017-06-29T09:07:21.612Z,16.3
2017-06-29T09:08:21.946Z,16.29
2017-06-29T09:09:22.254Z,16.37
2017-06-29T09:10:21.924Z,16.4
2017-06-29T09:11:21.933Z,16.49
2017-06-29T09:12:21.914Z,16.54
2017-06-29T09:13:22.237Z,16.47
2017-06-29T09:14:21.907Z,16.49
2017-06-29T09:15:22.233Z,16.57
2017-06-29T09:16:21.582Z,16.57
2017-06-29T09:17:21.899Z,16.58
2017-06-29T09:18:22.218Z,16.63
2017-06-29T09:19:22.217Z,16.69
2017-06-29T09:20:22.216Z,16.7
2017-06-29T09:21:22.233Z,16.72
2017-06-29T09:22:22.207Z,16.82
2017-06-29T09:23:22.210Z,16.88
2017-06-29T09:24:21.882Z,16.88
2017-06-29T09:25:21.877Z,17.02
2017-06-29T09:26:21.877Z,17.03
2017-06-29T09:27:22.201Z,17.02
2017-06-29T09:28:21.875Z,16.95
2017-06-29T09:29:22.211Z,16.9
2017-06-29T09:30:22.196Z,16.82
2017-06-29T09:31:21.895Z,16.9
2017-06-29T09:32:22.181Z,16.85
2017-06-29T09:33:22.178Z,16.85
2017-06-29T09:34:21.856Z,16.97
2017-06-29T09:35:21.873Z,16.88
2017-06-29T09:36:21.534Z,16.97
2017-06-29T09:37:22.180Z,16.92
2017-06-29T09:38:22.193Z,17.06
2017-06-29T09:39:21.546Z,16.95
2017-06-29T09:40:21.870Z,16.95
2017-06-29T09:41:21.845Z,17.03
2017-06-29T09:42:21.857Z,16.82
2017-06-29T09:43:22.166Z,16.9
2017-06-29T09:44:22.163Z,16.87
2017-06-29T09:45:21.843Z,16.94
2017-06-29T09:46:22.167Z,17
2017-06-29T09:47:21.839Z,16.95
2017-06-29T09:48:22.155Z,16.97
2017-06-29T09:49:22.152Z,17
2017-06-29T09:50:21.849Z,16.95
2017-06-29T09:51:21.512Z,17
2017-06-29T09:52:22.144Z,16.9
2017-06-29T09:53:21.827Z,16.92
2017-06-29T09:54:21.847Z,16.94
2017-06-29T09:55:22.140Z,16.91
2017-06-29T09:56:22.139Z,16.85
2017-06-29T09:57:21.846Z,16.95
2017-06-29T09:58:22.134Z,16.81
2017-06-29T09:59:22.135Z,16.8
2017-06-29T10:00:21.804Z,16.88
2017-06-29T10:01:22.143Z,16.8
2017-06-29T10:02:22.128Z,16.74
2017-06-29T10:03:22.128Z,16.65
2017-06-29T10:04:21.860Z,16.57
2017-06-29T10:05:21.795Z,16.39
2017-06-29T10:06:21.793Z,16.29
2017-06-29T10:07:21.791Z,16.29
2017-06-29T10:08:21.787Z,16.25
2017-06-29T10:09:21.465Z,16.21
2017-06-29T10:10:21.841Z,16.16
2017-06-29T10:11:21.458Z,16.18
2017-06-29T10:12:21.798Z,16.13
2017-06-29T10:13:21.807Z,16.11
2017-06-29T10:14:22.091Z,16.08
2017-06-29T10:15:22.098Z,16.07
2017-06-29T10:16:21.769Z,16.04
2017-06-29T10:17:22.085Z,16.04
2017-06-29T10:18:22.080Z,16.04
2017-06-29T10:19:22.077Z,16.04
2017-06-29T10:20:22.076Z,15.99
2017-06-29T10:21:21.753Z,16.04
2017-06-29T10:22:21.752Z,16.02
2017-06-29T10:23:21.767Z,16.04
2017-06-29T10:24:21.424Z,16.1
2017-06-29T10:25:21.423Z,16.11
2017-06-29T10:26:21.454Z,16.22
2017-06-29T10:27:21.736Z,16.18
2017-06-29T10:28:21.734Z,16.14
2017-06-29T10:29:21.728Z,16.14
2017-06-29T10:30:21.739Z,16.18
2017-06-29T10:31:21.724Z,16.21
2017-06-29T10:32:21.720Z,16.21
2017-06-29T10:33:22.037Z,16.18
2017-06-29T10:34:21.757Z,16.32
2017-06-29T10:35:22.056Z,16.21
2017-06-29T10:36:22.029Z,16.18
2017-06-29T10:37:21.707Z,16.18
2017-06-29T10:38:21.713Z,16.18
2017-06-29T10:39:21.702Z,16.21
2017-06-29T10:40:22.021Z,16.21
2017-06-29T10:41:22.015Z,16.21
2017-06-29T10:42:22.010Z,16.08
2017-06-29T10:43:22.022Z,16.07
2017-06-29T10:44:21.706Z,16.07
2017-06-29T10:45:21.686Z,16.21
2017-06-29T10:46:22.029Z,16.14
2017-06-29T10:47:21.677Z,16.25
2017-06-29T10:48:21.677Z,16.22
2017-06-29T10:49:21.673Z,16.27
2017-06-29T10:50:21.674Z,16.22
2017-06-29T10:51:21.988Z,16.36
2017-06-29T10:52:22.029Z,16.25
2017-06-29T10:53:21.674Z,16.17
2017-06-29T10:54:21.659Z,16.33
2017-06-29T10:55:21.673Z,16.27
2017-06-29T10:56:21.969Z,16.33
2017-06-29T10:57:21.974Z,16.25
2017-06-29T10:58:21.968Z,16.17
2017-06-29T10:59:21.333Z,16.29
2017-06-29T11:00:21.635Z,16.32
2017-06-29T11:01:21.952Z,16.34
2017-06-29T11:02:21.307Z,16.3
2017-06-29T11:03:21.650Z,16.26
2017-06-29T11:04:21.638Z,16.4
2017-06-29T11:05:21.620Z,16.36
2017-06-29T11:06:21.939Z,16.39
2017-06-29T11:07:21.936Z,16.47
2017-06-29T11:08:21.624Z,16.51
2017-06-29T11:09:21.287Z,16.44
2017-06-29T11:10:21.611Z,16.52
2017-06-29T11:11:21.605Z,16.59
2017-06-29T11:12:21.932Z,16.59
2017-06-29T11:13:21.917Z,16.65
2017-06-29T11:14:21.911Z,16.63
2017-06-29T11:15:21.588Z,16.67
2017-06-29T11:16:21.908Z,16.67
2017-06-29T11:17:21.580Z,16.63
2017-06-29T11:18:21.583Z,16.55
2017-06-29T11:19:21.901Z,16.67
2017-06-29T11:20:21.252Z,16.74
2017-06-29T11:21:21.568Z,16.69
2017-06-29T11:22:21.911Z,16.65
2017-06-29T11:23:21.885Z,16.67
2017-06-29T11:24:21.882Z,16.65
2017-06-29T11:25:21.893Z,16.63
2017-06-29T11:26:21.875Z,16.72
2017-06-29T11:27:21.879Z,16.67
2017-06-29T11:28:21.245Z,16.7
2017-06-29T11:29:21.884Z,16.73
2017-06-29T11:30:21.564Z,16.7
2017-06-29T11:31:21.859Z,16.72
2017-06-29T11:32:21.863Z,16.73
2017-06-29T11:33:21.872Z,16.74
2017-06-29T11:34:21.534Z,16.81
2017-06-29T11:35:21.528Z,16.77
2017-06-29T11:36:21.202Z,16.82
2017-06-29T11:37:21.532Z,16.8
2017-06-29T11:38:21.523Z,16.77
2017-06-29T11:39:21.519Z,16.77
2017-06-29T11:40:21.836Z,16.73
2017-06-29T11:41:21.554Z,16.81
2017-06-29T11:42:21.508Z,16.72
2017-06-29T11:43:21.188Z,16.8
2017-06-29T11:44:21.502Z,16.8
2017-06-29T11:45:21.177Z,16.82
2017-06-29T11:46:21.495Z,16.82
2017-06-29T11:47:21.814Z,16.8
2017-06-29T11:48:21.495Z,16.8
2017-06-29T11:49:21.807Z,16.7
2017-06-29T11:50:21.805Z,16.7
2017-06-29T11:51:21.808Z,16.65
2017-06-29T11:52:21.492Z,16.58
2017-06-29T11:53:21.155Z,16.45
2017-06-29T11:54:21.495Z,16.4
2017-06-29T11:55:21.505Z,16.44
2017-06-29T11:56:21.468Z,16.37
2017-06-29T11:57:21.834Z,16.4
2017-06-29T11:58:21.786Z,16.4
2017-06-29T11:59:21.460Z,16.47
2017-06-29T12:00:21.780Z,16.47
2017-06-29T12:01:21.779Z,16.52
2017-06-29T12:02:21.808Z,16.48
2017-06-29T12:03:21.778Z,16.48
2017-06-29T12:04:21.768Z,16.49
2017-06-29T12:05:21.766Z,16.49
2017-06-29T12:06:21.122Z,16.34
2017-06-29T12:07:21.443Z,16.36
2017-06-29T12:08:21.778Z,16.34
2017-06-29T12:09:21.449Z,16.25
2017-06-29T12:10:21.433Z,16.29
2017-06-29T12:11:21.752Z,16.21
2017-06-29T12:12:21.103Z,16.16
2017-06-29T12:13:21.746Z,16.04
2017-06-29T12:14:21.740Z,15.96
2017-06-29T12:15:21.762Z,15.86
2017-06-29T12:16:21.417Z,15.88
2017-06-29T12:17:21.411Z,15.77
2017-06-29T12:18:21.746Z,15.73
2017-06-29T12:19:21.725Z,15.67
2017-06-29T12:20:21.405Z,15.62
2017-06-29T12:21:21.401Z,15.47
2017-06-29T12:22:21.761Z,15.51
2017-06-29T12:23:21.717Z,15.51
2017-06-29T12:24:21.087Z,15.52
2017-06-29T12:25:21.391Z,15.52
2017-06-29T12:26:21.407Z,15.58
2017-06-29T12:27:21.704Z,15.59
2017-06-29T12:28:21.376Z,15.62
2017-06-29T12:29:21.701Z,15.62
2017-06-29T12:30:21.055Z,15.6
2017-06-29T12:31:21.689Z,15.6
2017-06-29T12:32:21.364Z,15.59
2017-06-29T12:33:21.362Z,15.56
2017-06-29T12:34:21.364Z,15.49
2017-06-29T12:35:21.676Z,15.45
2017-06-29T12:36:21.356Z,15.43
2017-06-29T12:37:21.348Z,15.41
2017-06-29T12:38:21.664Z,15.4
2017-06-29T12:39:21.339Z,15.34
2017-06-29T12:40:21.340Z,15.37
2017-06-29T12:41:21.341Z,15.31
2017-06-29T12:42:21.330Z,15.34
2017-06-29T12:43:21.004Z,15.33
2017-06-29T12:44:21.648Z,15.38
2017-06-29T12:45:21.638Z,15.3
2017-06-29T12:46:21.637Z,15.33
2017-06-29T12:47:21.310Z,15.35
2017-06-29T12:48:21.308Z,15.2
2017-06-29T12:49:20.987Z,15.22
2017-06-29T12:50:21.619Z,15.15
2017-06-29T12:51:21.615Z,15.12
2017-06-29T12:52:21.618Z,15.1
2017-06-29T12:53:21.291Z,15.05
2017-06-29T12:54:21.284Z,15.02
2017-06-29T12:55:21.280Z,14.93